This is the latest recevied weather packets stored in our database for station/object kj4yre. If no packets are shown the sender has not sent any weather packets the latest 10 day(s).
| Time | Temp. | Humidity | Pressure | Rain* | Wind** | Luminosity | Snow |
|---|---|---|---|---|---|---|---|
| 1777859534 | 7.78° C | 76% | 1018 hPa | 0 mm | - | - | - |
| 1777858636 | 8.33° C | 75% | 1017.9 hPa | 0 mm | - | - | - |
| 1777858337 | 8.33° C | 74% | 1017.8 hPa | 0 mm | - | - | - |
| 1777857737 | 8.33° C | 72% | 1017.7 hPa | 0 mm | - | - | - |
| 1777855636 | 10° C | 66% | 1017.4 hPa | 0 mm | - | - | - |
| 1777852334 | 13.33° C | 53% | 1016.8 hPa | 0 mm | - | - | - |
| 1777852035 | 13.33° C | 52% | 1016.7 hPa | 0 mm | - | - | - |
| 1777850835 | 14.44° C | 45% | 1016.7 hPa | 0 mm | - | - | - |
| 1777849936 | 15.56° C | 41% | 1016.5 hPa | 0 mm | - | - | - |
| 1777846635 | 18.33° C | 33% | 1016.6 hPa | 0 mm | - | - | - |
| 1777846336 | 18.89° C | 32% | 1016.7 hPa | 0 mm | - | - | - |
| 1777845736 | 18.89° C | 32% | 1016.6 hPa | 0 mm | - | - | - |
| 1777844535 | 18.89° C | 32% | 1016.5 hPa | 0 mm | - | - | - |
| 1777844236 | 18.89° C | 31% | 1016.5 hPa | 0 mm | - | - | - |
| 1777843634 | 19.44° C | 31% | 1016.4 hPa | 0 mm | - | - | - |
| 1777843335 | 19.44° C | 32% | 1016.5 hPa | 0 mm | - | - | - |
| 1777843034 | 18.89° C | 34% | 1016.5 hPa | 0 mm | - | - | - |
| 1777841836 | 19.44° C | 32% | 1016.3 hPa | 0 mm | - | - | - |
| 1777841236 | 19.44° C | 33% | 1016.4 hPa | 0 mm | - | - | - |
| 1777839137 | 18.33° C | 32% | 1016.7 hPa | 0 mm | - | - | - |
| 1777838236 | 17.78° C | 33% | 1016.7 hPa | 0 mm | - | - | - |
| 1777837937 | 18.33° C | 33% | 1016.8 hPa | 0 mm | - | - | - |
| 1777835236 | 18.33° C | 36% | 1017.6 hPa | 0 mm | - | - | - |
| 1777833736 | 17.22° C | 34% | 1017.9 hPa | 0 mm | - | - | - |
| 1777833435 | 17.78° C | 35% | 1017.9 hPa | 0 mm | - | - | - |
* Rain latest hour (hover to see other rain measurements)
** Current wind speed in m/s (hover to see current wind gust speed)